createdAt,value
2018-02-03T00:02:18.814Z,85.66
2018-02-03T00:04:47.238Z,85.75
2018-02-03T00:07:15.635Z,85.80
2018-02-03T00:09:44.085Z,85.97
2018-02-03T00:12:12.521Z,85.70
2018-02-03T00:14:40.923Z,85.76
2018-02-03T00:17:09.386Z,85.63
2018-02-03T00:19:37.764Z,85.30
2018-02-03T00:22:06.160Z,84.90
2018-02-03T00:24:34.587Z,84.60
2018-02-03T00:27:02.989Z,84.75
2018-02-03T00:29:31.407Z,84.62
2018-02-03T00:31:59.860Z,84.77
2018-02-03T00:34:28.261Z,84.87
2018-02-03T00:36:56.677Z,84.59
2018-02-03T00:39:25.134Z,84.58
2018-02-03T00:41:53.525Z,84.33
2018-02-03T00:44:21.906Z,84.32
2018-02-03T00:46:50.349Z,84.40
2018-02-03T00:49:18.754Z,84.47
2018-02-03T00:51:47.141Z,84.78
2018-02-03T00:54:15.810Z,84.83
2018-02-03T00:56:44.215Z,84.40
2018-02-03T00:59:12.616Z,84.69
2018-02-03T01:01:41.085Z,84.77
2018-02-03T01:04:09.464Z,84.76
2018-02-03T01:06:37.846Z,84.71
2018-02-03T01:09:06.280Z,84.47
2018-02-03T01:11:34.681Z,84.52
2018-02-03T01:14:03.087Z,84.34
2018-02-03T01:16:31.525Z,84.43
2018-02-03T01:18:59.923Z,84.22
2018-02-03T01:21:28.323Z,84.40
2018-02-03T01:23:56.741Z,84.48
2018-02-03T01:26:25.126Z,84.75
2018-02-03T01:28:53.528Z,85.14
2018-02-03T01:31:21.963Z,85.21
2018-02-03T01:33:50.423Z,85.39
2018-02-03T01:36:18.825Z,85.25
2018-02-03T01:38:47.249Z,84.89
2018-02-03T01:41:15.669Z,85.02
2018-02-03T01:43:44.067Z,84.68
2018-02-03T01:46:12.509Z,84.21
2018-02-03T01:48:40.893Z,84.49
2018-02-03T01:51:09.273Z,84.50
2018-02-03T01:53:37.954Z,84.48
2018-02-03T01:56:06.345Z,85.25
2018-02-03T01:58:34.730Z,85.32
2018-02-03T02:01:03.165Z,85.20
2018-02-03T02:03:31.570Z,85.24
2018-02-03T02:05:59.961Z,85.39
2018-02-03T02:08:28.391Z,85.52
2018-02-03T02:10:56.791Z,85.59
2018-02-03T02:13:25.181Z,85.42
2018-02-03T02:15:53.634Z,85.46
2018-02-03T02:18:22.046Z,85.23
2018-02-03T02:20:50.429Z,85.11
2018-02-03T02:23:18.885Z,85.48
2018-02-03T02:25:47.281Z,85.64
2018-02-03T02:28:15.683Z,85.73
2018-02-03T02:30:44.141Z,85.38
2018-02-03T02:33:12.552Z,85.41
2018-02-03T02:35:40.959Z,85.82
2018-02-03T02:38:09.394Z,85.72
2018-02-03T02:40:37.804Z,85.70
2018-02-03T02:43:06.440Z,85.83
2018-02-03T02:45:34.867Z,86.08
2018-02-03T02:48:03.268Z,86.05
2018-02-03T02:50:31.735Z,86.01
2018-02-03T02:53:00.172Z,86.07
2018-02-03T02:55:28.565Z,85.92
2018-02-03T02:57:56.959Z,86.25
2018-02-03T03:00:25.409Z,85.98
2018-02-03T03:02:53.797Z,85.49
2018-02-03T03:05:22.200Z,85.50
2018-02-03T03:07:50.632Z,85.99
2018-02-03T03:10:19.032Z,85.95
2018-02-03T03:12:47.409Z,85.63
2018-02-03T03:15:16.007Z,85.60
2018-02-03T03:17:44.432Z,85.26
2018-02-03T03:20:12.822Z,85.00
2018-02-03T03:25:15.687Z,84.88
2018-02-03T03:27:44.134Z,84.53
2018-02-03T03:30:12.539Z,84.37
2018-02-03T03:32:40.942Z,84.38
2018-02-03T03:35:09.387Z,84.38
2018-02-03T03:37:37.785Z,84.39
2018-02-03T03:40:06.173Z,84.19
2018-02-03T03:42:34.614Z,84.09
2018-02-03T03:45:03.005Z,84.28
2018-02-03T03:47:31.396Z,84.51
2018-02-03T03:49:59.813Z,84.76
2018-02-03T03:52:28.222Z,84.84
2018-02-03T03:54:56.605Z,84.89
2018-02-03T03:57:25.037Z,84.86
2018-02-03T03:59:53.449Z,84.95
2018-02-03T04:02:21.867Z,84.80
2018-02-03T04:04:50.305Z,84.95
2018-02-03T04:07:18.722Z,84.98
2018-02-03T04:09:47.111Z,84.68
2018-02-03T04:12:15.534Z,84.82
2018-02-03T04:14:43.921Z,84.95
2018-02-03T04:17:12.321Z,84.98
2018-02-03T04:19:40.786Z,84.64
2018-02-03T04:22:09.179Z,84.84
2018-02-03T04:24:37.576Z,85.21
2018-02-03T04:27:06.016Z,84.95
2018-02-03T04:29:34.405Z,84.25
2018-02-03T04:32:02.799Z,84.14
2018-02-03T04:34:31.229Z,83.92
2018-02-03T04:36:59.614Z,83.78
2018-02-03T04:39:28.006Z,83.67
2018-02-03T04:41:56.425Z,83.30
2018-02-03T04:44:24.822Z,83.72
2018-02-03T04:46:53.228Z,83.83
2018-02-03T04:49:21.658Z,84.07
2018-02-03T04:51:50.103Z,83.88
2018-02-03T04:54:18.499Z,84.02
2018-02-03T04:56:46.925Z,83.41
2018-02-03T04:59:15.319Z,83.92
2018-02-03T05:01:43.753Z,83.68
2018-02-03T05:04:12.190Z,83.46
2018-02-03T05:06:40.585Z,83.73
2018-02-03T05:09:08.987Z,84.45
2018-02-03T05:11:37.439Z,85.01
2018-02-03T05:14:05.842Z,85.26
2018-02-03T05:16:34.259Z,85.42
2018-02-03T05:19:02.682Z,85.15
2018-02-03T05:21:31.080Z,85.13
2018-02-03T05:23:59.470Z,84.95
2018-02-03T05:26:27.907Z,85.22
2018-02-03T05:28:56.298Z,85.24
2018-02-03T05:31:24.681Z,85.32
2018-02-03T05:33:53.111Z,85.13
2018-02-03T05:36:21.493Z,84.95
2018-02-03T05:38:49.896Z,84.40
2018-02-03T05:41:18.324Z,84.31
2018-02-03T05:43:46.735Z,83.92
2018-02-03T05:46:15.141Z,83.90
2018-02-03T05:48:43.577Z,83.92
2018-02-03T05:51:11.958Z,84.11
2018-02-03T05:53:40.334Z,84.05
2018-02-03T05:56:08.807Z,83.84
2018-02-03T05:58:37.208Z,83.77
2018-02-03T06:01:05.616Z,83.79
2018-02-03T06:03:34.043Z,84.01
2018-02-03T06:06:02.421Z,84.19
2018-02-03T06:08:30.797Z,84.25
2018-02-03T06:10:59.212Z,84.34
2018-02-03T06:13:27.584Z,83.97
2018-02-03T06:15:55.964Z,83.92
2018-02-03T06:18:24.406Z,83.37
2018-02-03T06:20:52.776Z,83.80
2018-02-03T06:23:21.159Z,83.82
2018-02-03T06:25:49.588Z,84.08
2018-02-03T06:28:17.983Z,83.92
2018-02-03T06:30:46.369Z,83.99
2018-02-03T06:33:14.787Z,83.83
2018-02-03T06:35:43.171Z,83.50
2018-02-03T06:38:11.567Z,83.72
2018-02-03T06:40:39.996Z,83.96
2018-02-03T06:43:08.387Z,83.98
2018-02-03T06:45:36.776Z,84.12
2018-02-03T06:48:05.215Z,84.11
2018-02-03T06:50:33.591Z,84.08
2018-02-03T06:53:01.969Z,83.66
2018-02-03T06:55:30.400Z,83.82
2018-02-03T06:57:58.786Z,83.80
2018-02-03T07:00:27.173Z,83.69
2018-02-03T07:02:55.604Z,83.61
2018-02-03T07:05:23.999Z,82.98
2018-02-03T07:07:52.385Z,82.98
2018-02-03T07:10:20.856Z,82.76
2018-02-03T07:12:49.271Z,82.74
2018-02-03T07:15:17.693Z,82.85
2018-02-03T07:17:46.145Z,83.04
2018-02-03T07:20:14.542Z,82.87
2018-02-03T07:22:42.928Z,83.25
2018-02-03T07:25:11.376Z,83.37
2018-02-03T07:27:39.764Z,83.03
2018-02-03T07:30:08.222Z,82.49
2018-02-03T07:32:36.723Z,81.22
2018-02-03T07:35:05.107Z,82.24
2018-02-03T07:37:33.489Z,81.85
2018-02-03T07:40:01.902Z,82.07
2018-02-03T07:42:30.295Z,82.94
2018-02-03T07:44:58.757Z,83.41
2018-02-03T07:47:27.236Z,83.55
2018-02-03T07:49:55.621Z,83.98
2018-02-03T07:52:24.024Z,83.84
2018-02-03T07:54:52.685Z,83.72
2018-02-03T07:57:21.071Z,84.24
2018-02-03T07:59:49.451Z,83.95
2018-02-03T08:02:17.904Z,84.06
2018-02-03T08:04:46.287Z,83.40
2018-02-03T08:07:14.676Z,83.47
2018-02-03T08:09:43.115Z,83.42
2018-02-03T08:12:11.505Z,83.69
2018-02-03T08:14:39.894Z,83.48
2018-02-03T08:17:08.314Z,83.55
2018-02-03T08:19:36.703Z,83.60
2018-02-03T08:22:05.095Z,83.40
2018-02-03T08:24:33.527Z,83.60
2018-02-03T08:27:01.910Z,83.55
2018-02-03T08:29:30.290Z,83.25
2018-02-03T08:31:58.795Z,83.35
2018-02-03T08:34:27.165Z,83.21
2018-02-03T08:36:55.549Z,83.33
2018-02-03T08:39:23.982Z,83.19
2018-02-03T08:41:52.364Z,82.97
2018-02-03T08:44:20.758Z,82.17
2018-02-03T08:46:49.186Z,82.41
2018-02-03T08:49:17.577Z,82.35
2018-02-03T08:51:45.972Z,82.07
2018-02-03T08:54:14.395Z,82.32
2018-02-03T08:56:42.790Z,82.28
2018-02-03T08:59:11.206Z,81.64
2018-02-03T09:01:39.619Z,82.20
2018-02-03T09:04:08.012Z,81.98
2018-02-03T09:06:36.389Z,80.73
2018-02-03T09:09:04.890Z,80.82
2018-02-03T09:11:33.303Z,81.07
2018-02-03T09:14:01.687Z,81.46
2018-02-03T09:16:30.127Z,81.37
2018-02-03T09:18:58.509Z,80.98
2018-02-03T09:21:26.899Z,80.59
2018-02-03T09:23:55.319Z,80.15
2018-02-03T09:26:23.706Z,80.52
2018-02-03T09:28:52.111Z,79.60
2018-02-03T09:31:20.545Z,79.94
2018-02-03T09:33:49.190Z,78.83
2018-02-03T09:36:17.574Z,78.78
2018-02-03T09:38:46.024Z,78.35
2018-02-03T09:41:14.405Z,79.35
2018-02-03T09:43:42.781Z,79.21
2018-02-03T09:46:11.210Z,78.35
2018-02-03T09:48:39.581Z,78.15
2018-02-03T09:51:07.957Z,78.94
2018-02-03T09:53:36.411Z,79.09
2018-02-03T09:56:04.798Z,79.77
2018-02-03T09:58:33.197Z,79.41
2018-02-03T10:01:01.628Z,79.51
2018-02-03T10:03:30.007Z,77.58
2018-02-03T10:05:58.420Z,76.97
2018-02-03T10:08:26.853Z,76.34
2018-02-03T10:10:55.248Z,75.73
2018-02-03T10:13:23.625Z,76.19
2018-02-03T10:15:52.089Z,73.82
2018-02-03T10:18:20.462Z,74.52
2018-02-03T10:20:48.833Z,73.71
2018-02-03T10:23:17.265Z,73.35
2018-02-03T10:25:45.643Z,73.53
2018-02-03T10:28:14.025Z,72.74
2018-02-03T10:30:42.451Z,72.48
2018-02-03T10:33:10.830Z,70.85
2018-02-03T10:35:39.203Z,70.36
2018-02-03T10:38:07.699Z,69.25
2018-02-03T10:40:36.073Z,69.32
2018-02-03T10:43:04.446Z,69.42
2018-02-03T10:45:32.875Z,71.09
2018-02-03T10:48:01.263Z,70.82
2018-02-03T10:50:29.671Z,70.93
2018-02-03T10:52:58.106Z,69.17
2018-02-03T10:55:26.491Z,71.11
2018-02-03T10:57:54.872Z,70.06
2018-02-03T11:00:24.097Z,71.36
2018-02-03T11:02:52.485Z,72.08
2018-02-03T11:05:20.861Z,71.79
2018-02-03T11:07:49.294Z,70.46
2018-02-03T11:10:17.689Z,71.14
2018-02-03T11:12:46.108Z,71.56
2018-02-03T11:15:14.544Z,71.95
2018-02-03T11:17:42.947Z,70.38
2018-02-03T11:20:11.341Z,70.79
2018-02-03T11:22:39.769Z,72.22
2018-02-03T11:25:08.138Z,72.08
2018-02-03T11:27:36.515Z,72.31
2018-02-03T11:30:04.943Z,73.06
2018-02-03T11:32:33.331Z,71.56
2018-02-03T11:35:01.722Z,73.39
2018-02-03T11:37:30.157Z,71.84
2018-02-03T11:39:58.563Z,71.29
2018-02-03T11:42:26.956Z,72.95
2018-02-03T11:44:55.391Z,73.75
2018-02-03T11:47:23.773Z,72.00
2018-02-03T11:49:52.155Z,72.06
2018-02-03T11:52:20.577Z,71.32
2018-02-03T11:54:48.974Z,71.95
2018-02-03T11:57:17.366Z,71.64
2018-02-03T11:59:45.793Z,72.17
2018-02-03T12:02:14.165Z,72.67
2018-02-03T12:04:42.550Z,73.02
2018-02-03T12:07:10.977Z,72.68
2018-02-03T12:09:39.368Z,72.28
2018-02-03T12:12:07.785Z,73.63
2018-02-03T12:14:36.200Z,73.08
2018-02-03T12:17:04.576Z,74.24
2018-02-03T12:19:32.961Z,75.08
2018-02-03T12:22:01.384Z,75.85
2018-02-03T12:24:29.770Z,75.84
2018-02-03T12:26:58.138Z,76.01
2018-02-03T12:29:26.559Z,76.27
2018-02-03T12:31:54.948Z,75.88
2018-02-03T12:34:23.342Z,75.63
2018-02-03T12:36:51.926Z,75.81
2018-02-03T12:39:20.297Z,76.55
2018-02-03T12:41:48.674Z,76.24
2018-02-03T12:44:17.111Z,76.23
2018-02-03T12:46:45.489Z,76.91
2018-02-03T12:49:13.881Z,75.88
2018-02-03T12:51:42.300Z,75.31
2018-02-03T12:54:10.683Z,74.48
2018-02-03T12:56:39.067Z,75.81
2018-02-03T12:59:07.487Z,76.51
2018-02-03T13:01:35.892Z,76.10
2018-02-03T13:04:04.296Z,77.04
2018-02-03T13:06:32.708Z,76.89
2018-02-03T13:09:01.089Z,76.76
2018-02-03T13:11:29.500Z,76.06
2018-02-03T13:13:57.926Z,76.98
2018-02-03T13:16:26.297Z,76.88
2018-02-03T13:18:54.739Z,76.58
2018-02-03T13:21:23.164Z,76.44
2018-02-03T13:23:51.537Z,75.95
2018-02-03T13:26:19.912Z,76.68
2018-02-03T13:28:48.343Z,76.37
2018-02-03T13:31:16.710Z,77.13
2018-02-03T13:33:45.093Z,77.98
2018-02-03T13:36:13.511Z,77.49
2018-02-03T13:38:41.913Z,77.92
2018-02-03T13:41:10.301Z,78.08
2018-02-03T13:43:38.712Z,78.34
2018-02-03T13:46:07.086Z,78.76
2018-02-03T13:48:35.475Z,78.43
2018-02-03T13:51:03.903Z,78.26
2018-02-03T13:53:32.311Z,79.03
2018-02-03T13:56:00.717Z,78.50
2018-02-03T13:58:29.120Z,78.38
2018-02-03T14:00:57.498Z,78.69
2018-02-03T14:03:25.886Z,79.16
2018-02-03T14:05:54.319Z,79.59
2018-02-03T14:08:22.736Z,79.16
2018-02-03T14:10:51.105Z,79.34
2018-02-03T14:13:19.532Z,78.89
2018-02-03T14:15:47.920Z,78.72
2018-02-03T14:18:16.293Z,78.82
2018-02-03T14:20:44.935Z,78.94
2018-02-03T14:23:13.323Z,78.73
2018-02-03T14:25:41.769Z,79.09
2018-02-03T14:28:10.486Z,78.98
2018-02-03T14:30:38.870Z,78.45
2018-02-03T14:33:07.259Z,78.35
2018-02-03T14:35:35.681Z,78.43
2018-02-03T14:38:04.074Z,78.85
2018-02-03T14:40:32.443Z,79.32
2018-02-03T14:43:00.862Z,78.72
2018-02-03T14:45:29.259Z,79.58
2018-02-03T14:47:57.647Z,79.80
2018-02-03T14:50:26.063Z,79.26
2018-02-03T14:52:54.477Z,78.96
2018-02-03T14:55:22.844Z,79.12
2018-02-03T14:57:51.257Z,79.15
2018-02-03T15:00:19.663Z,79.70
2018-02-03T15:02:48.047Z,80.15
2018-02-03T15:05:16.479Z,79.88
2018-02-03T15:07:44.884Z,80.10
2018-02-03T15:10:13.264Z,80.28
2018-02-03T15:12:41.699Z,79.50
2018-02-03T15:15:10.091Z,80.07
2018-02-03T15:17:38.488Z,80.03
2018-02-03T15:20:06.924Z,80.60
2018-02-03T15:22:35.505Z,80.09
2018-02-03T15:25:03.948Z,80.10
2018-02-03T15:27:32.459Z,79.74
2018-02-03T15:30:00.833Z,80.45
2018-02-03T15:32:29.212Z,81.05
2018-02-03T15:34:57.639Z,81.25
2018-02-03T15:37:26.032Z,81.07
2018-02-03T15:39:54.414Z,81.21
2018-02-03T15:42:22.857Z,81.16
2018-02-03T15:44:51.241Z,81.45
2018-02-03T15:47:19.614Z,81.28
2018-02-03T15:49:48.110Z,81.34
2018-02-03T15:52:16.501Z,81.48
2018-02-03T15:54:44.927Z,81.54
2018-02-03T15:57:13.372Z,81.49
2018-02-03T15:59:41.849Z,81.52
2018-02-03T16:02:10.233Z,81.50
2018-02-03T16:04:38.692Z,81.47
2018-02-03T16:07:07.072Z,82.06
2018-02-03T16:09:35.455Z,82.09
2018-02-03T16:12:03.873Z,81.83
2018-02-03T16:14:32.255Z,82.05
2018-02-03T16:17:00.650Z,81.97
2018-02-03T16:19:29.257Z,82.21
2018-02-03T16:21:57.645Z,82.69
2018-02-03T16:24:26.028Z,82.70
2018-02-03T16:26:54.553Z,82.84
2018-02-03T16:29:22.971Z,82.81
2018-02-03T16:31:51.365Z,83.04
2018-02-03T16:34:19.844Z,83.71
2018-02-03T16:36:48.238Z,83.43
2018-02-03T16:39:16.618Z,83.04
2018-02-03T16:41:45.043Z,83.08
2018-02-03T16:44:13.413Z,82.85
2018-02-03T16:46:41.847Z,82.98
2018-02-03T16:49:10.279Z,83.13
2018-02-03T16:51:38.711Z,82.83
2018-02-03T16:54:07.100Z,82.54
2018-02-03T16:56:42.355Z,82.46
2018-02-03T16:59:10.741Z,82.65
2018-02-03T17:01:39.112Z,82.59
2018-02-03T17:04:07.551Z,82.75
2018-02-03T17:06:35.938Z,82.50
2018-02-03T17:09:04.397Z,82.45
2018-02-03T17:11:32.836Z,82.68
2018-02-03T17:14:01.236Z,82.72
2018-02-03T17:16:29.654Z,82.61
2018-02-03T17:18:58.102Z,82.90
2018-02-03T17:21:26.528Z,82.90
2018-02-03T17:23:54.929Z,83.04
2018-02-03T17:26:23.349Z,83.33
2018-02-03T17:28:51.750Z,83.66
2018-02-03T17:31:20.129Z,83.49
2018-02-03T17:33:48.570Z,83.50
2018-02-03T17:36:22.446Z,83.31
2018-02-03T17:38:50.909Z,83.14
2018-02-03T17:41:19.296Z,82.95
2018-02-03T17:43:47.694Z,82.82
2018-02-03T17:46:21.634Z,82.99
2018-02-03T17:48:50.023Z,82.72
2018-02-03T17:51:18.410Z,83.09
2018-02-03T17:53:46.839Z,83.53
2018-02-03T17:56:20.930Z,82.91
2018-02-03T17:58:49.376Z,82.73
2018-02-03T18:01:17.776Z,82.55
2018-02-03T18:03:47.069Z,83.01
2018-02-03T18:06:15.534Z,83.48
2018-02-03T18:08:43.927Z,83.31
2018-02-03T18:11:12.337Z,82.89
2018-02-03T18:13:40.780Z,82.66
2018-02-03T18:16:09.163Z,82.78
2018-02-03T18:18:37.549Z,82.85
2018-02-03T18:21:06.003Z,83.14
2018-02-03T18:23:34.393Z,83.19
2018-02-03T18:26:02.780Z,83.82
2018-02-03T18:28:31.212Z,83.72
2018-02-03T18:30:59.594Z,83.25
2018-02-03T18:33:27.986Z,83.47
2018-02-03T18:35:56.472Z,83.20
2018-02-03T18:38:24.907Z,82.84
2018-02-03T18:40:53.311Z,82.47
2018-02-03T18:43:21.755Z,82.44
2018-02-03T18:45:50.146Z,82.79
2018-02-03T18:48:18.541Z,82.69
2018-02-03T18:50:46.981Z,82.64
2018-02-03T18:53:15.371Z,82.53
2018-02-03T18:55:43.792Z,83.12
2018-02-03T18:58:12.245Z,82.96
2018-02-03T19:00:40.631Z,82.88
2018-02-03T19:03:09.035Z,82.97
2018-02-03T19:05:37.484Z,82.87
2018-02-03T19:08:05.883Z,82.90
2018-02-03T19:10:34.283Z,82.70
2018-02-03T19:13:02.721Z,82.79
2018-02-03T19:15:31.143Z,82.86
2018-02-03T19:17:59.521Z,82.91
2018-02-03T19:20:27.956Z,82.79
2018-02-03T19:22:56.357Z,82.86
2018-02-03T19:25:24.797Z,83.19
2018-02-03T19:27:53.272Z,82.99
2018-02-03T19:30:21.671Z,82.74
2018-02-03T19:32:50.083Z,83.11
2018-02-03T19:35:18.533Z,83.55
2018-02-03T19:37:46.940Z,83.41
2018-02-03T19:40:15.329Z,83.55
2018-02-03T19:42:43.761Z,83.12
2018-02-03T19:45:12.165Z,83.33
2018-02-03T19:47:40.558Z,83.31
2018-02-03T19:50:09.003Z,83.74
2018-02-03T19:52:37.394Z,83.62
2018-02-03T19:55:05.781Z,83.62
2018-02-03T19:57:34.202Z,83.77
2018-02-03T20:00:02.595Z,83.97
2018-02-03T20:02:30.996Z,84.35
2018-02-03T20:04:59.437Z,83.72
2018-02-03T20:07:27.844Z,83.48
2018-02-03T20:09:56.258Z,83.99
2018-02-03T20:12:24.687Z,84.02
2018-02-03T20:14:53.097Z,84.08
2018-02-03T20:17:21.493Z,84.16
2018-02-03T20:19:49.932Z,83.52
2018-02-03T20:22:18.330Z,83.89
2018-02-03T20:24:46.712Z,83.88
2018-02-03T20:27:15.145Z,84.15
2018-02-03T20:29:43.542Z,83.73
2018-02-03T20:32:11.934Z,84.04
2018-02-03T20:34:40.361Z,84.15
2018-02-03T20:37:08.755Z,83.88
2018-02-03T20:39:37.157Z,83.50
2018-02-03T20:42:05.585Z,83.35
2018-02-03T20:44:33.997Z,83.69
2018-02-03T20:47:02.419Z,83.51
2018-02-03T20:49:30.868Z,83.43
2018-02-03T20:51:59.256Z,83.91
2018-02-03T20:54:27.664Z,83.54
2018-02-03T20:56:56.236Z,83.65
2018-02-03T20:59:24.626Z,83.70
2018-02-03T21:01:53.032Z,83.95
2018-02-03T21:04:21.478Z,84.07
2018-02-03T21:06:49.886Z,83.93
2018-02-03T21:09:19.243Z,83.89
2018-02-03T21:11:47.671Z,84.23
2018-02-03T21:14:16.080Z,83.98
2018-02-03T21:16:44.487Z,83.82
2018-02-03T21:19:12.934Z,84.12
2018-02-03T21:21:41.331Z,84.37
2018-02-03T21:24:09.737Z,84.63
2018-02-03T21:26:38.175Z,84.41
2018-02-03T21:29:06.563Z,84.11
2018-02-03T21:31:34.965Z,83.95
2018-02-03T21:34:03.411Z,83.61
2018-02-03T21:36:31.807Z,83.71
2018-02-03T21:39:00.218Z,83.59
2018-02-03T21:41:28.658Z,83.71
2018-02-03T21:43:57.058Z,84.08
2018-02-03T21:46:25.468Z,83.98
2018-02-03T21:48:53.889Z,84.05
2018-02-03T21:51:22.298Z,84.10
2018-02-03T21:53:50.706Z,84.23
2018-02-03T21:56:19.157Z,84.15
2018-02-03T21:58:47.567Z,84.14
2018-02-03T22:01:15.965Z,84.32
2018-02-03T22:03:44.464Z,84.20
2018-02-03T22:06:12.853Z,84.35
2018-02-03T22:08:41.254Z,84.32
2018-02-03T22:11:09.699Z,84.00
2018-02-03T22:13:38.093Z,83.91
2018-02-03T22:16:06.496Z,84.07
2018-02-03T22:18:34.959Z,84.32
2018-02-03T22:21:03.362Z,84.24
2018-02-03T22:23:31.763Z,84.04
2018-02-03T22:26:00.217Z,84.09
2018-02-03T22:28:28.613Z,84.24
2018-02-03T22:30:57.018Z,84.27
2018-02-03T22:33:25.513Z,84.49
2018-02-03T22:35:53.951Z,84.78
2018-02-03T22:38:22.383Z,84.61
2018-02-03T22:40:50.828Z,84.61
2018-02-03T22:43:19.234Z,84.67
2018-02-03T22:45:47.646Z,84.86
2018-02-03T22:48:16.306Z,84.75
2018-02-03T22:50:44.732Z,84.76
2018-02-03T22:53:13.148Z,84.81
2018-02-03T22:55:41.587Z,84.59
2018-02-03T22:58:09.991Z,84.78
2018-02-03T23:00:38.420Z,84.73
2018-02-03T23:03:06.870Z,84.62
2018-02-03T23:05:35.257Z,84.59
2018-02-03T23:08:03.655Z,84.06
2018-02-03T23:10:32.120Z,84.10
2018-02-03T23:13:00.509Z,84.27
2018-02-03T23:15:28.881Z,84.69
2018-02-03T23:17:57.330Z,84.57
2018-02-03T23:20:25.724Z,84.57
2018-02-03T23:22:54.119Z,84.60
2018-02-03T23:25:22.575Z,84.79
2018-02-03T23:27:50.967Z,84.90
2018-02-03T23:30:19.356Z,84.66
2018-02-03T23:32:47.781Z,84.59
2018-02-03T23:35:16.167Z,84.72
2018-02-03T23:37:44.607Z,84.92
2018-02-03T23:40:13.067Z,84.66
2018-02-03T23:42:41.457Z,84.58
2018-02-03T23:45:09.841Z,84.55
2018-02-03T23:47:38.505Z,84.57
2018-02-03T23:50:06.889Z,84.62
2018-02-03T23:52:35.280Z,84.85
2018-02-03T23:55:03.714Z,84.65
2018-02-03T23:57:32.102Z,85.13
